createdAt,value
2018-06-29T00:00:37.833Z,99.99
2018-06-29T00:01:37.817Z,99.99
2018-06-29T00:02:37.809Z,99.99
2018-06-29T00:03:37.787Z,99.99
2018-06-29T00:04:37.772Z,99.99
2018-06-29T00:05:37.771Z,99.99
2018-06-29T00:06:37.749Z,99.99
2018-06-29T00:07:37.736Z,99.99
2018-06-29T00:08:37.723Z,99.99
2018-06-29T00:09:37.724Z,99.99
2018-06-29T00:10:37.703Z,99.99
2018-06-29T00:11:37.695Z,99.99
2018-06-29T00:12:37.682Z,99.99
2018-06-29T00:13:37.662Z,99.99
2018-06-29T00:14:37.656Z,99.99
2018-06-29T00:15:37.643Z,99.99
2018-06-29T00:16:37.715Z,99.99
2018-06-29T00:17:37.611Z,99.99
2018-06-29T00:18:37.601Z,99.99
2018-06-29T00:19:37.591Z,99.99
2018-06-29T00:20:37.582Z,99.99
2018-06-29T00:21:37.563Z,99.99
2018-06-29T00:22:37.547Z,99.99
2018-06-29T00:23:37.542Z,99.99
2018-06-29T00:24:37.524Z,99.99
2018-06-29T00:25:37.512Z,99.99
2018-06-29T00:26:37.499Z,99.99
2018-06-29T00:27:37.499Z,99.99
2018-06-29T00:28:37.482Z,99.99
2018-06-29T00:29:37.471Z,99.99
2018-06-29T00:30:37.450Z,99.99
2018-06-29T00:31:37.453Z,99.99
2018-06-29T00:32:37.424Z,99.99
2018-06-29T00:33:37.411Z,99.99
2018-06-29T00:34:37.402Z,99.99
2018-06-29T00:35:37.390Z,99.99
2018-06-29T00:36:37.380Z,99.99
2018-06-29T00:37:37.369Z,99.99
2018-06-29T00:38:37.351Z,99.99
2018-06-29T00:39:37.338Z,99.99
2018-06-29T00:40:37.325Z,99.99
2018-06-29T00:41:37.313Z,99.99
2018-06-29T00:42:37.303Z,99.99
2018-06-29T00:43:37.291Z,99.99
2018-06-29T00:44:37.279Z,99.99
2018-06-29T00:45:37.267Z,99.99
2018-06-29T00:46:37.250Z,99.99
2018-06-29T00:47:37.251Z,99.99
2018-06-29T00:48:37.232Z,99.99
2018-06-29T00:49:37.216Z,99.99
2018-06-29T00:50:37.199Z,99.99
2018-06-29T00:51:37.192Z,99.99
2018-06-29T00:52:37.185Z,99.99
2018-06-29T00:53:37.164Z,99.99
2018-06-29T00:54:37.215Z,99.99
2018-06-29T00:55:37.138Z,99.99
2018-06-29T00:56:37.123Z,99.99
2018-06-29T00:57:37.117Z,99.99
2018-06-29T00:58:37.097Z,99.99
2018-06-29T00:59:37.084Z,99.99
2018-06-29T01:00:37.078Z,99.99
2018-06-29T01:01:37.062Z,99.99
2018-06-29T01:02:37.058Z,99.99
2018-06-29T01:03:37.036Z,99.99
2018-06-29T01:04:37.026Z,99.99
2018-06-29T01:05:37.014Z,99.99
2018-06-29T01:06:37.003Z,99.99
2018-06-29T01:07:36.994Z,99.99
2018-06-29T01:08:36.972Z,99.99
2018-06-29T01:09:36.968Z,99.99
2018-06-29T01:10:36.943Z,99.99
2018-06-29T01:11:36.938Z,99.99
2018-06-29T01:12:36.927Z,99.99
2018-06-29T01:13:36.915Z,99.99
2018-06-29T01:14:36.895Z,99.99
2018-06-29T01:15:36.892Z,99.99
2018-06-29T01:16:36.873Z,99.99
2018-06-29T01:17:36.864Z,99.99
2018-06-29T01:18:36.851Z,99.99
2018-06-29T01:19:36.841Z,99.99
2018-06-29T01:20:36.827Z,99.99
2018-06-29T01:21:36.810Z,99.99
2018-06-29T01:22:36.796Z,99.99
2018-06-29T01:23:36.784Z,99.99
2018-06-29T01:24:36.771Z,99.99
2018-06-29T01:25:36.768Z,99.99
2018-06-29T01:26:36.745Z,99.99
2018-06-29T01:27:36.735Z,99.99
2018-06-29T01:28:36.744Z,99.99
2018-06-29T01:29:36.712Z,99.99
2018-06-29T01:30:36.698Z,99.99
2018-06-29T01:31:36.684Z,99.99
2018-06-29T01:32:36.669Z,99.99
2018-06-29T01:33:36.660Z,99.99
2018-06-29T01:34:36.643Z,99.99
2018-06-29T01:35:36.631Z,99.99
2018-06-29T01:36:36.621Z,99.99
2018-06-29T01:37:36.605Z,99.99
2018-06-29T01:38:36.598Z,99.99
2018-06-29T01:39:36.580Z,99.99
2018-06-29T01:40:36.575Z,99.99
2018-06-29T01:41:36.558Z,99.99
2018-06-29T01:42:36.567Z,99.99
2018-06-29T01:43:36.529Z,99.99
2018-06-29T01:44:36.522Z,99.99
2018-06-29T01:45:36.503Z,99.99
2018-06-29T01:46:36.490Z,99.99
2018-06-29T01:47:36.481Z,99.99
2018-06-29T01:48:36.465Z,99.99
2018-06-29T01:49:36.456Z,99.99
2018-06-29T01:50:36.443Z,99.99
2018-06-29T01:51:36.429Z,99.99
2018-06-29T01:52:36.451Z,99.99
2018-06-29T01:53:36.404Z,99.99
2018-06-29T01:54:36.394Z,99.99
2018-06-29T01:55:36.376Z,99.99
2018-06-29T01:56:36.363Z,99.99
2018-06-29T01:57:36.356Z,99.99
2018-06-29T01:58:36.340Z,99.99
2018-06-29T01:59:36.343Z,99.99
2018-06-29T02:00:36.316Z,99.99
2018-06-29T02:01:36.307Z,99.99
2018-06-29T02:02:36.290Z,99.99
2018-06-29T02:03:36.280Z,99.99
2018-06-29T02:04:36.268Z,99.99
2018-06-29T02:05:36.249Z,99.99
2018-06-29T02:06:36.236Z,99.99
2018-06-29T02:07:36.232Z,99.99
2018-06-29T02:08:36.217Z,99.99
2018-06-29T02:09:36.201Z,99.99
2018-06-29T02:10:36.187Z,99.99
2018-06-29T02:11:36.179Z,99.99
2018-06-29T02:12:36.160Z,99.99
2018-06-29T02:13:36.153Z,99.99
2018-06-29T02:14:36.134Z,99.99
2018-06-29T02:15:36.135Z,99.99
2018-06-29T02:16:36.122Z,99.99
2018-06-29T02:17:36.097Z,99.99
2018-06-29T02:18:36.086Z,99.99
2018-06-29T02:19:36.072Z,99.99
2018-06-29T02:20:36.062Z,99.99
2018-06-29T02:21:36.046Z,99.99
2018-06-29T02:22:36.043Z,99.99
2018-06-29T02:23:36.024Z,99.99
2018-06-29T02:24:36.014Z,99.99
2018-06-29T02:25:36.002Z,99.99
2018-06-29T02:26:35.988Z,99.99
2018-06-29T02:27:36.004Z,99.99
2018-06-29T02:28:35.956Z,99.99
2018-06-29T02:29:35.956Z,99.99
2018-06-29T02:30:35.998Z,99.99
2018-06-29T02:31:35.924Z,99.99
2018-06-29T02:32:35.905Z,99.99
2018-06-29T02:33:35.901Z,99.99
2018-06-29T02:34:35.885Z,99.99
2018-06-29T02:35:35.867Z,99.99
2018-06-29T02:36:35.860Z,99.99
2018-06-29T02:37:35.844Z,99.99
2018-06-29T02:38:35.834Z,99.99
2018-06-29T02:39:35.836Z,99.99
2018-06-29T02:40:35.809Z,99.99
2018-06-29T02:41:35.794Z,99.99
2018-06-29T02:42:35.777Z,99.99
2018-06-29T02:43:35.770Z,99.99
2018-06-29T02:44:35.754Z,99.99
2018-06-29T02:45:35.742Z,99.99
2018-06-29T02:46:35.734Z,99.99
2018-06-29T02:47:35.716Z,99.99
2018-06-29T02:48:35.707Z,99.99
2018-06-29T02:49:35.696Z,99.99
2018-06-29T02:50:35.676Z,99.99
2018-06-29T02:51:35.660Z,99.99
2018-06-29T02:52:35.650Z,99.99
2018-06-29T02:53:35.641Z,99.99
2018-06-29T02:54:35.628Z,99.99
2018-06-29T02:55:35.619Z,99.99
2018-06-29T02:56:35.600Z,99.99
2018-06-29T02:57:35.592Z,99.99
2018-06-29T02:58:35.588Z,99.99
2018-06-29T02:59:35.561Z,99.99
2018-06-29T03:00:35.558Z,99.99
2018-06-29T03:01:35.541Z,99.99
2018-06-29T03:02:35.530Z,99.99
2018-06-29T03:03:35.516Z,99.99
2018-06-29T03:04:35.499Z,99.99
2018-06-29T03:05:35.488Z,99.99
2018-06-29T03:06:35.477Z,99.99
2018-06-29T03:07:35.464Z,99.99
2018-06-29T03:08:35.445Z,99.99
2018-06-29T03:09:35.439Z,99.99
2018-06-29T03:10:35.426Z,99.99
2018-06-29T03:11:35.407Z,99.99
2018-06-29T03:12:35.401Z,99.99
2018-06-29T03:13:35.389Z,99.99
2018-06-29T03:14:35.372Z,99.99
2018-06-29T03:15:35.362Z,99.99
2018-06-29T03:16:35.343Z,99.99
2018-06-29T03:17:35.339Z,99.99
2018-06-29T03:18:35.320Z,99.99
2018-06-29T03:19:35.307Z,99.99
2018-06-29T03:20:35.292Z,99.99
2018-06-29T03:21:35.279Z,99.99
2018-06-29T03:22:35.266Z,99.99
2018-06-29T03:23:35.254Z,99.99
2018-06-29T03:24:35.248Z,99.99
2018-06-29T03:25:35.228Z,99.99
2018-06-29T03:26:35.218Z,99.99
2018-06-29T03:27:35.230Z,99.99
2018-06-29T03:28:35.196Z,99.99
2018-06-29T03:29:35.176Z,99.99
2018-06-29T03:30:35.169Z,99.99
2018-06-29T03:31:35.151Z,99.99
2018-06-29T03:32:35.138Z,99.99
2018-06-29T03:33:35.126Z,99.99
2018-06-29T03:34:35.113Z,99.99
2018-06-29T03:35:35.107Z,99.99
2018-06-29T03:36:35.099Z,99.99
2018-06-29T03:37:35.084Z,99.99
2018-06-29T03:38:35.067Z,99.99
2018-06-29T03:39:35.047Z,99.99
2018-06-29T03:40:35.100Z,99.99
2018-06-29T03:41:35.022Z,99.99
2018-06-29T03:42:35.009Z,99.99
2018-06-29T03:43:35.001Z,99.99
2018-06-29T03:44:34.985Z,99.99
2018-06-29T03:45:34.970Z,99.99
2018-06-29T03:46:34.955Z,99.99
2018-06-29T03:47:34.950Z,99.99
2018-06-29T03:48:34.933Z,99.99
2018-06-29T03:49:34.984Z,99.99
2018-06-29T03:50:34.909Z,99.99
2018-06-29T03:51:34.896Z,99.99
2018-06-29T03:52:34.883Z,99.99
2018-06-29T03:53:34.870Z,99.99
2018-06-29T03:54:34.854Z,99.99
2018-06-29T03:55:34.841Z,99.99
2018-06-29T03:56:34.832Z,99.99
2018-06-29T03:57:34.822Z,99.99
2018-06-29T03:58:34.803Z,99.99
2018-06-29T03:59:34.794Z,99.99
2018-06-29T04:00:34.777Z,99.99
2018-06-29T04:01:34.768Z,99.99
2018-06-29T04:02:34.752Z,99.99
2018-06-29T04:03:34.745Z,99.99
2018-06-29T04:04:34.724Z,99.99
2018-06-29T04:05:34.717Z,99.99
2018-06-29T04:06:34.707Z,99.99
2018-06-29T04:07:34.691Z,99.99
2018-06-29T04:08:34.678Z,99.99
2018-06-29T04:09:34.663Z,99.99
2018-06-29T04:10:34.655Z,99.99
2018-06-29T04:11:34.644Z,99.99
2018-06-29T04:12:34.630Z,99.99
2018-06-29T04:13:34.618Z,99.99
2018-06-29T04:14:34.609Z,99.99
2018-06-29T04:15:34.586Z,99.99
2018-06-29T04:16:34.576Z,99.99
2018-06-29T04:17:34.563Z,99.99
2018-06-29T04:18:34.557Z,99.99
2018-06-29T04:19:34.544Z,99.99
2018-06-29T04:20:34.525Z,99.99
2018-06-29T04:21:34.512Z,99.99
2018-06-29T04:22:34.499Z,99.99
2018-06-29T04:23:34.490Z,99.99
2018-06-29T04:24:34.474Z,99.99
2018-06-29T04:25:34.467Z,99.99
2018-06-29T04:26:34.504Z,99.99
2018-06-29T04:27:34.435Z,99.99
2018-06-29T04:28:34.418Z,99.99
2018-06-29T04:29:34.412Z,99.99
2018-06-29T04:30:34.397Z,99.99
2018-06-29T04:31:34.384Z,99.99
2018-06-29T04:32:34.374Z,99.99
2018-06-29T04:33:34.360Z,99.99
2018-06-29T04:34:34.346Z,99.99
2018-06-29T04:35:34.340Z,99.99
2018-06-29T04:36:34.327Z,99.99
2018-06-29T04:37:34.326Z,99.99
2018-06-29T04:38:34.301Z,99.99
2018-06-29T04:39:34.291Z,99.99
2018-06-29T04:40:34.271Z,99.99
2018-06-29T04:41:34.260Z,99.99
2018-06-29T04:42:34.244Z,99.99
2018-06-29T04:43:34.238Z,99.99
2018-06-29T04:44:34.218Z,99.99
2018-06-29T04:45:34.205Z,99.99
2018-06-29T04:46:34.200Z,99.99
2018-06-29T04:47:34.180Z,99.99
2018-06-29T04:48:34.177Z,99.99
2018-06-29T04:49:34.158Z,99.99
2018-06-29T04:50:34.148Z,99.99
2018-06-29T04:51:34.135Z,99.99
2018-06-29T04:52:34.126Z,99.99
2018-06-29T04:53:34.107Z,99.99
2018-06-29T04:54:34.091Z,99.99
2018-06-29T04:55:34.090Z,99.99
2018-06-29T04:56:34.069Z,99.99
2018-06-29T04:57:34.063Z,99.99
2018-06-29T04:58:34.047Z,99.99
2018-06-29T04:59:34.033Z,99.99
2018-06-29T05:00:34.018Z,99.99
2018-06-29T05:01:34.015Z,99.99
2018-06-29T05:02:33.995Z,99.99
2018-06-29T05:03:33.990Z,99.99
2018-06-29T05:04:33.988Z,99.99
2018-06-29T05:05:33.957Z,99.99
2018-06-29T05:06:33.950Z,99.99
2018-06-29T05:07:33.931Z,99.99
2018-06-29T05:08:33.924Z,99.99
2018-06-29T05:09:33.908Z,99.99
2018-06-29T05:10:33.899Z,99.99
2018-06-29T05:11:33.885Z,99.99
2018-06-29T05:12:33.874Z,99.99
2018-06-29T05:13:33.873Z,99.99
2018-06-29T05:14:33.852Z,99.99
2018-06-29T05:15:33.877Z,99.99
2018-06-29T05:16:34.584Z,99.99
2018-06-29T05:17:33.812Z,99.99
2018-06-29T05:18:33.802Z,99.99
2018-06-29T05:19:33.789Z,99.99
2018-06-29T05:20:33.793Z,99.99
2018-06-29T05:21:33.780Z,99.99
2018-06-29T05:22:33.757Z,99.99
2018-06-29T05:23:33.747Z,99.99
2018-06-29T05:24:33.732Z,99.99
2018-06-29T05:25:33.719Z,99.99
2018-06-29T05:26:33.709Z,99.99
2018-06-29T05:27:33.690Z,99.99
2018-06-29T05:28:33.684Z,99.99
2018-06-29T05:29:33.669Z,99.99
2018-06-29T05:30:33.659Z,99.99
2018-06-29T05:31:33.652Z,99.99
2018-06-29T05:32:33.640Z,99.99
2018-06-29T05:33:33.633Z,99.99
2018-06-29T05:34:33.613Z,99.99
2018-06-29T05:35:33.598Z,99.99
2018-06-29T05:36:33.590Z,99.99
2018-06-29T05:37:33.591Z,99.99
2018-06-29T05:38:33.566Z,99.99
2018-06-29T05:39:33.553Z,99.99
2018-06-29T05:40:33.541Z,99.99
2018-06-29T05:41:33.642Z,99.99
2018-06-29T05:42:33.568Z,99.99
2018-06-29T05:43:33.533Z,99.99
2018-06-29T05:44:33.496Z,99.99
2018-06-29T05:45:33.485Z,99.99
2018-06-29T05:46:33.478Z,99.99
2018-06-29T05:47:33.460Z,99.99
2018-06-29T05:48:33.464Z,99.99
2018-06-29T05:49:33.438Z,99.99
2018-06-29T05:50:33.425Z,99.99
2018-06-29T05:51:33.419Z,99.99
2018-06-29T05:52:33.406Z,99.99
2018-06-29T05:53:33.393Z,99.99
2018-06-29T05:54:33.377Z,99.99
2018-06-29T05:55:33.375Z,99.99
2018-06-29T05:56:33.358Z,99.99
2018-06-29T05:57:33.386Z,99.99
2018-06-29T05:58:33.335Z,99.99
2018-06-29T05:59:33.332Z,99.99
2018-06-29T06:00:33.315Z,99.99
2018-06-29T06:01:33.303Z,99.99
2018-06-29T06:02:33.288Z,99.99
2018-06-29T06:03:33.280Z,99.99
2018-06-29T06:04:33.294Z,99.99
2018-06-29T06:05:33.255Z,99.99
2018-06-29T06:06:33.239Z,99.99
2018-06-29T06:07:33.240Z,99.99
2018-06-29T06:08:33.219Z,99.99
2018-06-29T06:09:33.214Z,99.99
2018-06-29T06:10:33.200Z,99.99
2018-06-29T06:11:33.187Z,99.99
2018-06-29T06:12:33.181Z,99.99
2018-06-29T06:13:33.172Z,99.99
2018-06-29T06:14:33.165Z,99.99
2018-06-29T06:15:33.146Z,99.99
2018-06-29T06:16:33.137Z,99.99
2018-06-29T06:17:33.144Z,99.99
2018-06-29T06:18:33.113Z,99.99
2018-06-29T06:19:33.101Z,99.99
2018-06-29T06:20:33.099Z,99.99
2018-06-29T06:21:33.092Z,99.99
2018-06-29T06:22:33.069Z,99.99
2018-06-29T06:23:33.063Z,99.99
2018-06-29T06:24:33.050Z,99.99
2018-06-29T06:25:33.047Z,99.99
2018-06-29T06:26:33.033Z,99.99
2018-06-29T06:27:33.021Z,99.99
2018-06-29T06:28:33.015Z,99.99
2018-06-29T06:29:32.999Z,99.99
2018-06-29T06:30:32.998Z,99.99
2018-06-29T06:31:32.982Z,98.68
2018-06-29T06:32:32.972Z,98.20
2018-06-29T06:33:32.963Z,99.93
2018-06-29T06:34:32.954Z,99.99
2018-06-29T06:35:32.943Z,97.86
2018-06-29T06:36:32.935Z,97.96
2018-06-29T06:37:32.924Z,97.28
2018-06-29T06:38:32.915Z,96.03
2018-06-29T06:39:32.900Z,97.77
2018-06-29T06:40:32.891Z,96.32
2018-06-29T06:41:32.888Z,95.88
2018-06-29T06:42:32.875Z,95.98
2018-06-29T06:43:32.864Z,97.24
2018-06-29T06:44:32.858Z,94.73
2018-06-29T06:45:32.848Z,92.99
2018-06-29T06:46:32.841Z,93.13
2018-06-29T06:47:32.837Z,95.45
2018-06-29T06:48:32.816Z,93.66
2018-06-29T06:49:32.810Z,87.58
2018-06-29T06:50:32.804Z,86.71
2018-06-29T06:51:32.794Z,88.06
2018-06-29T06:52:32.788Z,87.00
2018-06-29T06:53:32.819Z,86.08
2018-06-29T06:54:32.766Z,87.34
2018-06-29T06:55:32.763Z,89.27
2018-06-29T06:56:32.750Z,88.89
2018-06-29T06:57:32.743Z,89.41
2018-06-29T06:58:32.737Z,91.44
2018-06-29T06:59:32.793Z,90.09
2018-06-29T07:00:32.729Z,88.73
2018-06-29T07:01:32.706Z,88.15
2018-06-29T07:02:32.704Z,87.23
2018-06-29T07:03:32.698Z,87.33
2018-06-29T07:04:32.685Z,85.88
2018-06-29T07:05:32.681Z,83.56
2018-06-29T07:06:32.665Z,82.69
2018-06-29T07:07:32.656Z,81.96
2018-06-29T07:08:32.656Z,82.93
2018-06-29T07:09:32.643Z,84.38
2018-06-29T07:10:32.643Z,83.41
2018-06-29T07:11:32.635Z,80.99
2018-06-29T07:12:32.633Z,80.38
2018-06-29T07:13:32.615Z,82.15
2018-06-29T07:14:32.612Z,84.67
2018-06-29T07:15:32.598Z,83.41
2018-06-29T07:16:32.592Z,84.67
2018-06-29T07:17:32.592Z,81.62
2018-06-29T07:18:32.582Z,82.15
2018-06-29T07:19:32.576Z,83.26
2018-06-29T07:20:32.563Z,81.23
2018-06-29T07:21:32.560Z,82.00
2018-06-29T07:22:32.547Z,81.71
2018-06-29T07:23:32.551Z,84.71
2018-06-29T07:24:32.555Z,82.91
2018-06-29T07:25:32.534Z,79.47
2018-06-29T07:26:32.521Z,80.15
2018-06-29T07:27:32.512Z,75.21
2018-06-29T07:28:32.512Z,76.37
2018-06-29T07:29:32.499Z,78.05
2018-06-29T07:30:32.493Z,75.73
2018-06-29T07:31:32.488Z,77.57
2018-06-29T07:32:32.478Z,80.62
2018-06-29T07:33:32.472Z,78.52
2018-06-29T07:34:32.471Z,74.97
2018-06-29T07:35:32.465Z,74.81
2018-06-29T07:36:32.459Z,71.84
2018-06-29T07:37:32.459Z,71.26
2018-06-29T07:38:32.487Z,70.03
2018-06-29T07:39:32.440Z,67.11
2018-06-29T07:40:32.440Z,68.57
2018-06-29T07:41:32.438Z,68.02
2018-06-29T07:42:32.428Z,66.50
2018-06-29T07:43:32.428Z,67.44
2018-06-29T07:44:32.420Z,67.34
2018-06-29T07:45:32.414Z,67.24
2018-06-29T07:46:32.406Z,68.15
2018-06-29T07:47:32.402Z,66.44
2018-06-29T07:48:32.398Z,66.60
2018-06-29T07:49:32.399Z,65.08
2018-06-29T07:50:32.392Z,67.02
2018-06-29T07:51:32.382Z,65.08
2018-06-29T07:52:32.379Z,65.04
2018-06-29T07:53:32.379Z,66.53
2018-06-29T07:54:32.373Z,64.52
2018-06-29T07:55:32.366Z,66.79
2018-06-29T07:56:32.365Z,62.48
2018-06-29T07:57:32.373Z,63.19
2018-06-29T07:58:32.375Z,60.18
2018-06-29T07:59:32.350Z,63.32
2018-06-29T08:00:32.350Z,65.01
2018-06-29T08:01:32.354Z,64.85
2018-06-29T08:02:32.338Z,62.13
2018-06-29T08:03:32.331Z,60.28
2018-06-29T08:04:32.335Z,63.10
2018-06-29T08:05:32.325Z,61.41
2018-06-29T08:06:32.315Z,64.20
2018-06-29T08:07:32.321Z,63.20
2018-06-29T08:08:32.315Z,65.82
2018-06-29T08:09:32.315Z,67.70
2018-06-29T08:10:32.307Z,67.15
2018-06-29T08:11:32.305Z,64.85
2018-06-29T08:12:32.304Z,62.90
2018-06-29T08:13:32.292Z,63.20
2018-06-29T08:14:32.287Z,63.32
2018-06-29T08:15:32.281Z,62.58
2018-06-29T08:16:32.279Z,65.23
2018-06-29T08:17:32.274Z,66.24
2018-06-29T08:18:32.273Z,59.57
2018-06-29T08:19:32.266Z,62.41
2018-06-29T08:20:32.269Z,65.33
2018-06-29T08:21:32.262Z,63.97
2018-06-29T08:22:32.251Z,61.93
2018-06-29T08:23:32.241Z,63.23
2018-06-29T08:24:32.242Z,62.64
2018-06-29T08:25:32.241Z,62.81
2018-06-29T08:26:32.238Z,62.61
2018-06-29T08:27:32.235Z,62.90
2018-06-29T08:28:32.235Z,63.52
2018-06-29T08:29:32.226Z,62.48
2018-06-29T08:30:32.219Z,62.51
2018-06-29T08:31:32.215Z,61.90
2018-06-29T08:32:32.206Z,62.02
2018-06-29T08:33:32.217Z,60.78
2018-06-29T08:34:32.206Z,60.17
2018-06-29T08:35:32.209Z,60.66
2018-06-29T08:36:32.190Z,58.69
2018-06-29T08:37:32.197Z,61.41
2018-06-29T08:38:32.199Z,61.51
2018-06-29T08:39:32.184Z,63.09
2018-06-29T08:40:32.186Z,62.57
2018-06-29T08:41:32.178Z,65.01
2018-06-29T08:42:32.179Z,62.32
2018-06-29T08:43:32.168Z,61.93
2018-06-29T08:44:32.158Z,59.98
2018-06-29T08:45:32.158Z,61.57
2018-06-29T08:46:32.159Z,60.39
2018-06-29T08:47:32.152Z,60.27
2018-06-29T08:48:32.149Z,59.49
2018-06-29T08:49:32.184Z,57.84
2018-06-29T08:50:32.140Z,59.00
2018-06-29T08:51:32.133Z,57.68
2018-06-29T08:52:32.127Z,57.68
2018-06-29T08:53:32.132Z,59.27
2018-06-29T08:54:32.125Z,61.11
2018-06-29T08:55:32.123Z,59.49
2018-06-29T08:56:32.120Z,58.49
2018-06-29T08:57:32.108Z,60.17
2018-06-29T08:58:32.107Z,58.15
2018-06-29T08:59:32.104Z,60.20
2018-06-29T09:00:32.105Z,57.15
2018-06-29T09:01:32.094Z,59.27
2018-06-29T09:02:32.092Z,62.60
2018-06-29T09:03:32.088Z,60.08
2018-06-29T09:04:32.081Z,58.29
2018-06-29T09:05:32.104Z,60.05
2018-06-29T09:06:32.076Z,61.34
2018-06-29T09:07:32.069Z,59.42
2018-06-29T09:08:32.066Z,60.62
2018-06-29T09:09:32.069Z,58.45
2018-06-29T09:10:32.063Z,57.84
2018-06-29T09:11:32.063Z,58.42
2018-06-29T09:12:32.050Z,59.81
2018-06-29T09:13:32.051Z,56.70
2018-06-29T09:14:32.042Z,58.94
2018-06-29T09:15:32.054Z,57.18
2018-06-29T09:16:32.035Z,58.54
2018-06-29T09:17:32.032Z,56.67
2018-06-29T09:18:32.026Z,60.00
2018-06-29T09:19:32.027Z,60.56
2018-06-29T09:20:32.018Z,56.96
2018-06-29T09:21:32.016Z,57.84
2018-06-29T09:22:32.016Z,57.22
2018-06-29T09:23:32.006Z,60.34
2018-06-29T09:24:32.006Z,56.93
2018-06-29T09:25:32.010Z,57.42
2018-06-29T09:26:31.999Z,60.08
2018-06-29T09:27:31.996Z,63.68
2018-06-29T09:28:31.986Z,57.51
2018-06-29T09:29:31.986Z,56.77
2018-06-29T09:30:31.988Z,59.89
2018-06-29T09:31:31.980Z,58.62
2018-06-29T09:32:31.974Z,60.41
2018-06-29T09:33:31.971Z,60.34
2018-06-29T09:34:31.969Z,57.81
2018-06-29T09:35:31.962Z,59.85
2018-06-29T09:36:31.958Z,60.36
2018-06-29T09:37:31.959Z,59.81
2018-06-29T09:38:31.953Z,61.76
2018-06-29T09:39:31.945Z,56.70
2018-06-29T09:40:31.941Z,58.18
2018-06-29T09:41:31.942Z,57.40
2018-06-29T09:42:31.996Z,59.64
2018-06-29T09:43:31.932Z,57.31
2018-06-29T09:44:31.929Z,60.36
2018-06-29T09:45:31.926Z,58.53
2018-06-29T09:46:31.919Z,58.04
2018-06-29T09:47:31.913Z,59.90
2018-06-29T09:48:31.925Z,56.68
2018-06-29T09:49:31.909Z,55.90
2018-06-29T09:50:31.900Z,58.02
2018-06-29T09:51:31.894Z,54.38
2018-06-29T09:52:31.894Z,58.22
2018-06-29T09:53:31.894Z,54.41
2018-06-29T09:54:31.885Z,56.07
2018-06-29T09:55:31.891Z,61.04
2018-06-29T09:56:31.884Z,59.41
2018-06-29T09:57:31.882Z,57.39
2018-06-29T09:58:31.872Z,57.59
2018-06-29T09:59:31.872Z,58.69
2018-06-29T10:00:31.924Z,55.54
2018-06-29T10:01:31.983Z,56.81
2018-06-29T10:03:31.856Z,55.71
2018-06-29T10:04:31.857Z,57.39
2018-06-29T10:05:31.853Z,58.14
2018-06-29T10:06:31.909Z,57.17
2018-06-29T10:07:31.850Z,57.59
2018-06-29T10:08:31.855Z,56.68
2018-06-29T10:09:31.843Z,54.90
2018-06-29T10:10:31.847Z,54.87
2018-06-29T10:11:31.852Z,55.33
2018-06-29T10:12:31.838Z,55.82
2018-06-29T10:13:31.837Z,58.25
2018-06-29T10:14:32.020Z,57.40
2018-06-29T10:15:31.824Z,55.79
2018-06-29T10:16:31.831Z,57.18
2018-06-29T10:17:31.831Z,59.45
2018-06-29T10:18:31.818Z,57.82
2018-06-29T10:19:31.833Z,57.95
2018-06-29T10:20:31.828Z,58.63
2018-06-29T10:21:31.823Z,59.74
2018-06-29T10:22:31.842Z,56.05
2018-06-29T10:23:31.814Z,53.61
2018-06-29T10:24:31.805Z,52.07
2018-06-29T10:25:31.879Z,56.56
2018-06-29T10:26:31.802Z,53.56
2018-06-29T10:27:31.802Z,54.24
2018-06-29T10:28:31.805Z,55.71
2018-06-29T10:29:31.817Z,53.53
2018-06-29T10:30:31.797Z,58.07
2018-06-29T10:31:31.799Z,56.64
2018-06-29T10:32:31.803Z,54.39
2018-06-29T10:33:31.799Z,58.13
2018-06-29T10:34:31.796Z,56.96
2018-06-29T10:35:31.799Z,58.69
2018-06-29T10:36:31.793Z,52.73
2018-06-29T10:37:31.792Z,55.63
2018-06-29T10:38:31.792Z,55.71
2018-06-29T10:39:31.792Z,54.17
2018-06-29T10:40:31.802Z,51.37
2018-06-29T10:41:31.819Z,55.30
2018-06-29T10:42:31.802Z,53.76
2018-06-29T10:43:31.798Z,52.17
2018-06-29T10:44:31.833Z,56.15
2018-06-29T10:45:31.795Z,55.80
2018-06-29T10:46:31.795Z,54.21
2018-06-29T10:47:31.798Z,57.21
2018-06-29T10:48:31.799Z,59.51
2018-06-29T10:49:31.793Z,55.80
2018-06-29T10:50:31.799Z,57.85
2018-06-29T10:51:31.798Z,57.43
2018-06-29T10:52:31.792Z,60.16
2018-06-29T10:53:31.793Z,57.65
2018-06-29T10:54:31.793Z,57.73
2018-06-29T10:55:31.792Z,56.16
2018-06-29T10:56:31.803Z,56.81
2018-06-29T10:57:31.805Z,57.68
2018-06-29T10:58:31.830Z,53.71
2018-06-29T10:59:31.789Z,55.79
2018-06-29T11:00:31.799Z,55.00
2018-06-29T11:01:31.799Z,56.86
2018-06-29T11:02:31.805Z,51.78
2018-06-29T11:03:31.796Z,51.29
2018-06-29T11:04:31.796Z,51.10
2018-06-29T11:05:31.834Z,51.49
2018-06-29T11:06:31.801Z,53.56
2018-06-29T11:07:31.809Z,56.99
2018-06-29T11:08:31.805Z,54.61
2018-06-29T11:09:31.809Z,53.64
2018-06-29T11:10:31.812Z,55.03
2018-06-29T11:11:31.818Z,57.87
2018-06-29T11:12:31.818Z,55.65
2018-06-29T11:13:31.828Z,51.07
2018-06-29T11:14:31.830Z,50.49
2018-06-29T11:15:31.829Z,49.33
2018-06-29T11:16:31.834Z,48.75
2018-06-29T11:17:31.844Z,48.07
2018-06-29T11:18:31.844Z,50.59
2018-06-29T11:19:31.847Z,49.87
2018-06-29T11:20:31.860Z,49.46
2018-06-29T11:21:31.895Z,51.07
2018-06-29T11:22:31.885Z,53.75
2018-06-29T11:23:31.867Z,53.66
2018-06-29T11:24:31.870Z,55.57
2018-06-29T11:25:31.879Z,52.76
2018-06-29T11:26:31.879Z,55.81
2018-06-29T11:27:31.882Z,53.76
2018-06-29T11:28:31.894Z,56.04
2018-06-29T11:29:31.897Z,55.87
2018-06-29T11:30:31.902Z,52.51
2018-06-29T11:31:31.905Z,51.86
2018-06-29T11:32:31.907Z,50.37
2018-06-29T11:33:31.920Z,50.95
2018-06-29T11:34:31.914Z,55.16
2018-06-29T11:35:31.919Z,49.48
2018-06-29T11:36:31.926Z,49.38
2018-06-29T11:37:31.934Z,52.86
2018-06-29T11:38:31.942Z,50.20
2018-06-29T11:39:31.946Z,50.51
2018-06-29T11:40:31.952Z,49.85
2018-06-29T11:41:31.959Z,51.05
2018-06-29T11:42:32.005Z,51.15
2018-06-29T11:43:31.972Z,54.68
2018-06-29T11:44:31.978Z,52.79
2018-06-29T11:45:31.981Z,50.27
2018-06-29T11:46:31.991Z,48.87
2018-06-29T11:47:31.997Z,52.00
2018-06-29T11:48:32.034Z,57.42
2018-06-29T11:49:32.015Z,48.09
2018-06-29T11:50:32.025Z,49.38
2018-06-29T11:51:32.072Z,50.88
2018-06-29T11:52:32.043Z,53.34
2018-06-29T11:53:32.046Z,57.11
2018-06-29T11:54:32.059Z,50.66
2018-06-29T11:55:32.058Z,49.97
2018-06-29T11:56:32.065Z,49.46
2018-06-29T11:57:32.065Z,52.03
2018-06-29T11:58:32.080Z,50.61
2018-06-29T11:59:32.085Z,52.29
2018-06-29T12:00:32.148Z,51.76
2018-06-29T12:01:32.100Z,54.85
2018-06-29T12:02:32.103Z,53.17
2018-06-29T12:03:32.105Z,54.34
2018-06-29T12:04:32.109Z,57.10
2018-06-29T12:05:32.116Z,55.59
2018-06-29T12:06:32.115Z,57.01
2018-06-29T12:07:32.176Z,58.44
2018-06-29T12:08:32.124Z,52.23
2018-06-29T12:09:32.125Z,52.69
2018-06-29T12:10:32.138Z,50.93
2018-06-29T12:11:32.137Z,51.32
2018-06-29T12:12:32.137Z,52.86
2018-06-29T12:13:32.161Z,50.76
2018-06-29T12:14:32.151Z,52.86
2018-06-29T12:15:32.154Z,53.42
2018-06-29T12:16:32.342Z,52.02
2018-06-29T12:17:32.170Z,54.73
2018-06-29T12:18:32.167Z,54.63
2018-06-29T12:19:32.176Z,52.19
2018-06-29T12:20:32.176Z,54.44
2018-06-29T12:21:32.177Z,54.44
2018-06-29T12:22:32.183Z,55.90
2018-06-29T12:23:32.182Z,55.15
2018-06-29T12:24:32.177Z,54.13
2018-06-29T12:25:32.464Z,50.56
2018-06-29T12:26:32.186Z,52.96
2018-06-29T12:27:32.186Z,49.02
2018-06-29T12:28:32.192Z,49.63
2018-06-29T12:29:32.196Z,50.78
2018-06-29T12:30:32.192Z,46.98
2018-06-29T12:31:32.202Z,45.51
2018-06-29T12:32:32.199Z,48.63
2018-06-29T12:33:32.205Z,49.36
2018-06-29T12:34:32.234Z,49.63
2018-06-29T12:35:32.208Z,48.80
2018-06-29T12:36:32.222Z,50.27
2018-06-29T12:37:32.226Z,47.80
2018-06-29T12:38:32.224Z,50.73
2018-06-29T12:39:32.230Z,51.22
2018-06-29T12:40:32.231Z,55.13
2018-06-29T12:41:32.234Z,52.69
2018-06-29T12:42:32.238Z,49.07
2018-06-29T12:43:32.236Z,53.37
2018-06-29T12:44:32.241Z,51.88
2018-06-29T12:45:32.230Z,53.83
2018-06-29T12:46:32.237Z,49.61
2018-06-29T12:47:32.238Z,51.17
2018-06-29T12:48:32.234Z,52.83
2018-06-29T12:49:32.234Z,51.07
2018-06-29T12:50:32.240Z,55.96
2018-06-29T12:51:32.268Z,55.83
2018-06-29T12:52:32.241Z,52.02
2018-06-29T12:53:32.234Z,53.68